sensor_id;sensor_type;location;lat;lon;timestamp;P1;durP1;ratioP1;P2;durP2;ratioP2
72575;SDS011;60613;48.658;2.328;2023-01-15T07:02:41;0.90;;;0.32;;
72575;SDS011;60613;48.658;2.328;2023-01-15T07:05:07;2.73;;;0.50;;
72575;SDS011;60613;48.658;2.328;2023-01-15T07:07:33;1.60;;;0.50;;
72575;SDS011;60613;48.658;2.328;2023-01-15T07:09:59;1.90;;;0.50;;
72575;SDS011;60613;48.658;2.328;2023-01-15T07:12:24;1.88;;;0.40;;
72575;SDS011;60613;48.658;2.328;2023-01-15T07:14:50;2.83;;;0.50;;
72575;SDS011;60613;48.658;2.328;2023-01-15T07:17:16;1.03;;;0.40;;
72575;SDS011;60613;48.658;2.328;2023-01-15T07:19:42;1.85;;;0.40;;
72575;SDS011;60613;48.658;2.328;2023-01-15T07:22:08;1.48;;;0.50;;
72575;SDS011;60613;48.658;2.328;2023-01-15T07:24:35;4.63;;;0.55;;
72575;SDS011;60613;48.658;2.328;2023-01-15T07:27:01;3.45;;;0.60;;
72575;SDS011;60613;48.658;2.328;2023-01-15T07:29:26;4.83;;;0.60;;
72575;SDS011;60613;48.658;2.328;2023-01-15T07:31:52;3.17;;;0.50;;
72575;SDS011;60613;48.658;2.328;2023-01-15T07:34:18;6.00;;;0.70;;
72575;SDS011;60613;48.658;2.328;2023-01-15T07:36:44;3.33;;;0.55;;
72575;SDS011;60613;48.658;2.328;2023-01-15T07:39:10;2.87;;;0.70;;
72575;SDS011;60613;48.658;2.328;2023-01-15T07:41:36;4.77;;;0.90;;
72575;SDS011;60613;48.658;2.328;2023-01-15T07:44:20;3.70;;;0.70;;
72575;SDS011;60613;48.658;2.328;2023-01-15T07:47:24;7.90;;;0.80;;
72575;SDS011;60613;48.658;2.328;2023-01-15T07:50:11;6.18;;;0.90;;
72575;SDS011;60613;48.658;2.328;2023-01-15T07:52:38;6.45;;;0.82;;
72575;SDS011;60613;48.658;2.328;2023-01-15T07:55:04;3.63;;;0.73;;
72575;SDS011;60613;48.658;2.328;2023-01-15T07:57:32;8.98;;;1.00;;
72575;SDS011;60613;48.658;2.328;2023-01-15T07:59:58;6.82;;;0.98;;
72575;SDS011;60613;48.658;2.328;2023-01-15T08:02:23;3.97;;;0.70;;
72575;SDS011;60613;48.658;2.328;2023-01-15T08:04:49;3.50;;;0.80;;
72575;SDS011;60613;48.658;2.328;2023-01-15T08:07:15;3.07;;;0.70;;
72575;SDS011;60613;48.658;2.328;2023-01-15T08:09:40;3.83;;;0.70;;
72575;SDS011;60613;48.658;2.328;2023-01-15T08:12:06;5.43;;;0.60;;
72575;SDS011;60613;48.658;2.328;2023-01-15T08:14:52;11.50;;;0.95;;
72575;SDS011;60613;48.658;2.328;2023-01-15T08:17:36;3.15;;;0.60;;
72575;SDS011;60613;48.658;2.328;2023-01-15T08:20:04;3.87;;;0.80;;
72575;SDS011;60613;48.658;2.328;2023-01-15T08:22:33;4.55;;;0.60;;
72575;SDS011;60613;48.658;2.328;2023-01-15T08:24:59;3.42;;;0.65;;
72575;SDS011;60613;48.658;2.328;2023-01-15T08:27:24;3.07;;;0.90;;
72575;SDS011;60613;48.658;2.328;2023-01-15T08:29:51;4.55;;;0.85;;
72575;SDS011;60613;48.658;2.328;2023-01-15T08:32:17;5.10;;;0.73;;
72575;SDS011;60613;48.658;2.328;2023-01-15T08:34:42;6.00;;;0.90;;
72575;SDS011;60613;48.658;2.328;2023-01-15T08:37:08;6.10;;;1.00;;
72575;SDS011;60613;48.658;2.328;2023-01-15T08:39:34;6.53;;;0.85;;
72575;SDS011;60613;48.658;2.328;2023-01-15T08:41:59;5.23;;;0.93;;
72575;SDS011;60613;48.658;2.328;2023-01-15T08:44:25;5.07;;;1.00;;
72575;SDS011;60613;48.658;2.328;2023-01-15T08:46:51;4.77;;;0.90;;
72575;SDS011;60613;48.658;2.328;2023-01-15T08:49:18;5.45;;;0.90;;
72575;SDS011;60613;48.658;2.328;2023-01-15T08:51:44;5.18;;;0.90;;
72575;SDS011;60613;48.658;2.328;2023-01-15T08:54:13;5.80;;;0.90;;
72575;SDS011;60613;48.658;2.328;2023-01-15T08:56:40;7.13;;;0.80;;
72575;SDS011;60613;48.658;2.328;2023-01-15T08:59:05;5.97;;;0.90;;
72575;SDS011;60613;48.658;2.328;2023-01-15T09:01:34;3.10;;;0.70;;
72575;SDS011;60613;48.658;2.328;2023-01-15T09:04:00;4.63;;;0.80;;
72575;SDS011;60613;48.658;2.328;2023-01-15T09:06:26;5.25;;;0.98;;
72575;SDS011;60613;48.658;2.328;2023-01-15T09:08:52;3.45;;;0.70;;
72575;SDS011;60613;48.658;2.328;2023-01-15T09:11:18;3.90;;;0.70;;
72575;SDS011;60613;48.658;2.328;2023-01-15T09:13:44;5.00;;;0.98;;
72575;SDS011;60613;48.658;2.328;2023-01-15T09:16:14;3.88;;;0.70;;
72575;SDS011;60613;48.658;2.328;2023-01-15T09:18:41;4.13;;;0.80;;
72575;SDS011;60613;48.658;2.328;2023-01-15T09:21:07;3.47;;;0.73;;
72575;SDS011;60613;48.658;2.328;2023-01-15T09:23:32;4.90;;;0.60;;
72575;SDS011;60613;48.658;2.328;2023-01-15T09:25:59;4.03;;;0.77;;
72575;SDS011;60613;48.658;2.328;2023-01-15T09:28:29;4.15;;;0.80;;
72575;SDS011;60613;48.658;2.328;2023-01-15T09:30:55;5.22;;;0.80;;
72575;SDS011;60613;48.658;2.328;2023-01-15T09:33:21;4.70;;;0.73;;
72575;SDS011;60613;48.658;2.328;2023-01-15T09:35:47;3.20;;;0.70;;
72575;SDS011;60613;48.658;2.328;2023-01-15T09:38:13;3.45;;;0.60;;
72575;SDS011;60613;48.658;2.328;2023-01-15T09:40:51;5.45;;;0.95;;
72575;SDS011;60613;48.658;2.328;2023-01-15T09:45:58;5.13;;;0.80;;
72575;SDS011;60613;48.658;2.328;2023-01-15T09:51:16;5.38;;;0.85;;
72575;SDS011;60613;48.658;2.328;2023-01-15T09:54:06;4.57;;;1.00;;
72575;SDS011;60613;48.658;2.328;2023-01-15T09:56:35;5.77;;;1.07;;
72575;SDS011;60613;48.658;2.328;2023-01-15T09:59:10;4.50;;;0.80;;
72575;SDS011;60613;48.658;2.328;2023-01-15T10:01:44;3.45;;;0.82;;
72575;SDS011;60613;48.658;2.328;2023-01-15T10:06:47;4.22;;;1.08;;
72575;SDS011;60613;48.658;2.328;2023-01-15T10:09:21;5.37;;;0.90;;
72575;SDS011;60613;48.658;2.328;2023-01-15T10:11:54;4.47;;;0.85;;
72575;SDS011;60613;48.658;2.328;2023-01-15T10:14:44;5.18;;;1.00;;
72575;SDS011;60613;48.658;2.328;2023-01-15T10:17:26;5.13;;;0.88;;
72575;SDS011;60613;48.658;2.328;2023-01-15T10:19:58;3.10;;;0.90;;
72575;SDS011;60613;48.658;2.328;2023-01-15T10:22:34;4.83;;;0.83;;
72575;SDS011;60613;48.658;2.328;2023-01-15T10:25:15;4.18;;;0.95;;
72575;SDS011;60613;48.658;2.328;2023-01-15T10:27:46;5.10;;;1.00;;
72575;SDS011;60613;48.658;2.328;2023-01-15T10:30:16;6.03;;;1.30;;
72575;SDS011;60613;48.658;2.328;2023-01-15T10:32:54;5.53;;;1.20;;
72575;SDS011;60613;48.658;2.328;2023-01-15T10:35:29;5.88;;;1.30;;
72575;SDS011;60613;48.658;2.328;2023-01-15T10:43:50;5.50;;;1.13;;
72575;SDS011;60613;48.658;2.328;2023-01-15T10:46:23;5.45;;;1.10;;
72575;SDS011;60613;48.658;2.328;2023-01-15T10:48:57;5.28;;;1.23;;
72575;SDS011;60613;48.658;2.328;2023-01-15T10:51:33;5.10;;;1.30;;
72575;SDS011;60613;48.658;2.328;2023-01-15T10:54:05;6.63;;;1.40;;
72575;SDS011;60613;48.658;2.328;2023-01-15T10:56:56;5.83;;;1.40;;
72575;SDS011;60613;48.658;2.328;2023-01-15T11:02:38;6.60;;;1.48;;
72575;SDS011;60613;48.658;2.328;2023-01-15T11:05:11;5.00;;;1.20;;
72575;SDS011;60613;48.658;2.328;2023-01-15T11:07:41;5.20;;;1.13;;
72575;SDS011;60613;48.658;2.328;2023-01-15T11:10:10;4.73;;;1.20;;
72575;SDS011;60613;48.658;2.328;2023-01-15T11:12:39;4.65;;;1.08;;
72575;SDS011;60613;48.658;2.328;2023-01-15T11:15:31;4.65;;;1.10;;
72575;SDS011;60613;48.658;2.328;2023-01-15T11:18:34;6.63;;;1.48;;
72575;SDS011;60613;48.658;2.328;2023-01-15T11:21:22;7.00;;;1.30;;
72575;SDS011;60613;48.658;2.328;2023-01-15T11:23:50;6.63;;;1.50;;
72575;SDS011;60613;48.658;2.328;2023-01-15T11:26:18;6.05;;;1.40;;
72575;SDS011;60613;48.658;2.328;2023-01-15T11:28:49;5.68;;;1.40;;
72575;SDS011;60613;48.658;2.328;2023-01-15T11:31:16;7.80;;;1.60;;
72575;SDS011;60613;48.658;2.328;2023-01-15T11:33:58;5.17;;;1.40;;
72575;SDS011;60613;48.658;2.328;2023-01-15T11:36:29;4.90;;;1.20;;
72575;SDS011;60613;48.658;2.328;2023-01-15T11:38:56;6.90;;;1.40;;
72575;SDS011;60613;48.658;2.328;2023-01-15T11:44:11;6.47;;;1.40;;
72575;SDS011;60613;48.658;2.328;2023-01-15T11:46:55;6.20;;;1.50;;
72575;SDS011;60613;48.658;2.328;2023-01-15T11:49:48;7.53;;;1.55;;
72575;SDS011;60613;48.658;2.328;2023-01-15T11:52:35;6.90;;;1.60;;
72575;SDS011;60613;48.658;2.328;2023-01-15T11:55:13;5.57;;;1.27;;
72575;SDS011;60613;48.658;2.328;2023-01-15T11:57:43;6.40;;;1.48;;
72575;SDS011;60613;48.658;2.328;2023-01-15T12:00:22;6.43;;;1.50;;
72575;SDS011;60613;48.658;2.328;2023-01-15T12:02:52;7.30;;;1.70;;
72575;SDS011;60613;48.658;2.328;2023-01-15T12:05:25;5.75;;;1.45;;
72575;SDS011;60613;48.658;2.328;2023-01-15T12:07:54;5.93;;;1.50;;
72575;SDS011;60613;48.658;2.328;2023-01-15T12:10:36;5.70;;;1.40;;
72575;SDS011;60613;48.658;2.328;2023-01-15T12:13:31;4.67;;;1.10;;
72575;SDS011;60613;48.658;2.328;2023-01-15T12:19:41;8.57;;;1.50;;
72575;SDS011;60613;48.658;2.328;2023-01-15T12:27:42;6.73;;;1.30;;
72575;SDS011;60613;48.658;2.328;2023-01-15T12:32:54;5.25;;;1.25;;
72575;SDS011;60613;48.658;2.328;2023-01-15T12:35:36;5.72;;;1.30;;
72575;SDS011;60613;48.658;2.328;2023-01-15T12:38:14;5.65;;;1.30;;
72575;SDS011;60613;48.658;2.328;2023-01-15T12:40:53;6.07;;;1.50;;
72575;SDS011;60613;48.658;2.328;2023-01-15T12:43:26;5.53;;;1.30;;
72575;SDS011;60613;48.658;2.328;2023-01-15T12:46:15;6.05;;;1.30;;
72575;SDS011;60613;48.658;2.328;2023-01-15T12:48:54;5.78;;;1.40;;
72575;SDS011;60613;48.658;2.328;2023-01-15T12:51:27;5.50;;;1.38;;
72575;SDS011;60613;48.658;2.328;2023-01-15T12:53:59;4.90;;;1.20;;
72575;SDS011;60613;48.658;2.328;2023-01-15T12:59:27;6.40;;;1.40;;
72575;SDS011;60613;48.658;2.328;2023-01-15T13:04:49;6.03;;;1.33;;
72575;SDS011;60613;48.658;2.328;2023-01-15T13:07:21;6.40;;;1.30;;
72575;SDS011;60613;48.658;2.328;2023-01-15T13:13:20;4.82;;;1.25;;
72575;SDS011;60613;48.658;2.328;2023-01-15T13:21:17;5.07;;;1.17;;
72575;SDS011;60613;48.658;2.328;2023-01-15T13:26:34;6.72;;;1.20;;
72575;SDS011;60613;48.658;2.328;2023-01-15T13:29:49;5.80;;;1.15;;
72575;SDS011;60613;48.658;2.328;2023-01-15T13:32:33;5.47;;;1.20;;
72575;SDS011;60613;48.658;2.328;2023-01-15T13:35:14;5.00;;;0.90;;
72575;SDS011;60613;48.658;2.328;2023-01-15T13:37:45;6.40;;;1.20;;
72575;SDS011;60613;48.658;2.328;2023-01-15T13:42:53;6.03;;;1.20;;
72575;SDS011;60613;48.658;2.328;2023-01-15T13:48:03;5.53;;;1.10;;
72575;SDS011;60613;48.658;2.328;2023-01-15T13:50:35;3.78;;;1.00;;
72575;SDS011;60613;48.658;2.328;2023-01-15T13:55:42;5.50;;;1.00;;
72575;SDS011;60613;48.658;2.328;2023-01-15T14:09:05;5.00;;;1.10;;
72575;SDS011;60613;48.658;2.328;2023-01-15T14:24:58;4.60;;;1.10;;
72575;SDS011;60613;48.658;2.328;2023-01-15T14:27:41;5.00;;;0.93;;
72575;SDS011;60613;48.658;2.328;2023-01-15T14:36:07;4.15;;;0.90;;
72575;SDS011;60613;48.658;2.328;2023-01-15T14:38:43;4.63;;;0.95;;
72575;SDS011;60613;48.658;2.328;2023-01-15T14:41:15;4.37;;;0.97;;
72575;SDS011;60613;48.658;2.328;2023-01-15T14:43:57;4.47;;;0.88;;
72575;SDS011;60613;48.658;2.328;2023-01-15T14:46:29;3.65;;;1.08;;
72575;SDS011;60613;48.658;2.328;2023-01-15T14:48:58;4.38;;;1.00;;
72575;SDS011;60613;48.658;2.328;2023-01-15T14:51:29;5.07;;;0.80;;
72575;SDS011;60613;48.658;2.328;2023-01-15T14:53:58;5.10;;;0.90;;
72575;SDS011;60613;48.658;2.328;2023-01-15T14:56:36;5.05;;;0.90;;
72575;SDS011;60613;48.658;2.328;2023-01-15T15:01:49;3.03;;;0.80;;
72575;SDS011;60613;48.658;2.328;2023-01-15T15:06:57;5.30;;;0.97;;
72575;SDS011;60613;48.658;2.328;2023-01-15T15:09:28;5.47;;;0.90;;
72575;SDS011;60613;48.658;2.328;2023-01-15T15:14:52;4.50;;;0.90;;
72575;SDS011;60613;48.658;2.328;2023-01-15T15:17:43;3.35;;;0.80;;
72575;SDS011;60613;48.658;2.328;2023-01-15T15:26:00;5.13;;;1.08;;
72575;SDS011;60613;48.658;2.328;2023-01-15T15:28:28;4.05;;;0.85;;
72575;SDS011;60613;48.658;2.328;2023-01-15T15:30:54;5.53;;;1.00;;
72575;SDS011;60613;48.658;2.328;2023-01-15T15:33:25;5.43;;;1.00;;
72575;SDS011;60613;48.658;2.328;2023-01-15T15:35:57;5.53;;;1.10;;
72575;SDS011;60613;48.658;2.328;2023-01-15T15:38:24;6.57;;;1.50;;
72575;SDS011;60613;48.658;2.328;2023-01-15T15:40:51;6.18;;;1.55;;
72575;SDS011;60613;48.658;2.328;2023-01-15T15:46:24;6.20;;;1.53;;
72575;SDS011;60613;48.658;2.328;2023-01-15T15:49:11;7.60;;;1.92;;
72575;SDS011;60613;48.658;2.328;2023-01-15T15:51:46;7.47;;;1.98;;
72575;SDS011;60613;48.658;2.328;2023-01-15T15:54:17;8.73;;;2.40;;
72575;SDS011;60613;48.658;2.328;2023-01-15T16:01:58;8.77;;;2.67;;
72575;SDS011;60613;48.658;2.328;2023-01-15T16:04:32;9.13;;;3.10;;
72575;SDS011;60613;48.658;2.328;2023-01-15T16:06:58;10.63;;;3.30;;
72575;SDS011;60613;48.658;2.328;2023-01-15T16:09:23;9.45;;;3.30;;
72575;SDS011;60613;48.658;2.328;2023-01-15T16:11:50;9.33;;;3.30;;
72575;SDS011;60613;48.658;2.328;2023-01-15T16:14:16;8.50;;;3.03;;
72575;SDS011;60613;48.658;2.328;2023-01-15T16:16:43;9.35;;;3.47;;
72575;SDS011;60613;48.658;2.328;2023-01-15T16:19:13;9.33;;;3.70;;
72575;SDS011;60613;48.658;2.328;2023-01-15T16:21:45;10.60;;;3.92;;
72575;SDS011;60613;48.658;2.328;2023-01-15T16:24:21;10.68;;;4.03;;
72575;SDS011;60613;48.658;2.328;2023-01-15T16:26:56;9.35;;;3.78;;
72575;SDS011;60613;48.658;2.328;2023-01-15T16:29:32;11.23;;;4.20;;
72575;SDS011;60613;48.658;2.328;2023-01-15T16:31:59;10.43;;;3.90;;
72575;SDS011;60613;48.658;2.328;2023-01-15T16:34:33;9.65;;;3.88;;
72575;SDS011;60613;48.658;2.328;2023-01-15T16:36:59;10.77;;;4.28;;
72575;SDS011;60613;48.658;2.328;2023-01-15T16:41:58;9.60;;;4.07;;
72575;SDS011;60613;48.658;2.328;2023-01-15T16:47:09;8.90;;;3.80;;
72575;SDS011;60613;48.658;2.328;2023-01-15T16:49:48;10.55;;;4.80;;
72575;SDS011;60613;48.658;2.328;2023-01-15T16:52:33;10.93;;;4.30;;
72575;SDS011;60613;48.658;2.328;2023-01-15T16:58:21;9.65;;;4.07;;
72575;SDS011;60613;48.658;2.328;2023-01-15T17:00:47;9.70;;;4.35;;
72575;SDS011;60613;48.658;2.328;2023-01-15T17:03:16;9.68;;;4.25;;
72575;SDS011;60613;48.658;2.328;2023-01-15T17:05:47;10.18;;;4.40;;
72575;SDS011;60613;48.658;2.328;2023-01-15T17:08:19;9.57;;;4.30;;
72575;SDS011;60613;48.658;2.328;2023-01-15T17:10:56;10.35;;;4.45;;
72575;SDS011;60613;48.658;2.328;2023-01-15T17:13:27;10.20;;;4.53;;
72575;SDS011;60613;48.658;2.328;2023-01-15T17:16:01;10.52;;;4.55;;
72575;SDS011;60613;48.658;2.328;2023-01-15T17:18:30;10.25;;;4.30;;
72575;SDS011;60613;48.658;2.328;2023-01-15T17:20:57;10.00;;;4.17;;
72575;SDS011;60613;48.658;2.328;2023-01-15T17:23:25;9.43;;;4.32;;
72575;SDS011;60613;48.658;2.328;2023-01-15T17:25:53;10.07;;;4.32;;
72575;SDS011;60613;48.658;2.328;2023-01-15T17:28:19;10.25;;;4.43;;
72575;SDS011;60613;48.658;2.328;2023-01-15T17:30:48;9.27;;;4.40;;
72575;SDS011;60613;48.658;2.328;2023-01-15T17:33:16;10.23;;;4.40;;
72575;SDS011;60613;48.658;2.328;2023-01-15T17:35:43;10.80;;;4.53;;
72575;SDS011;60613;48.658;2.328;2023-01-15T17:38:12;11.30;;;4.88;;
72575;SDS011;60613;48.658;2.328;2023-01-15T17:40:39;9.77;;;4.63;;
72575;SDS011;60613;48.658;2.328;2023-01-15T17:43:05;9.60;;;4.10;;
72575;SDS011;60613;48.658;2.328;2023-01-15T17:45:32;10.70;;;4.65;;
72575;SDS011;60613;48.658;2.328;2023-01-15T17:47:58;9.93;;;4.95;;
72575;SDS011;60613;48.658;2.328;2023-01-15T17:50:24;10.38;;;4.70;;
72575;SDS011;60613;48.658;2.328;2023-01-15T17:52:49;9.73;;;4.80;;
72575;SDS011;60613;48.658;2.328;2023-01-15T17:55:19;9.80;;;4.95;;
72575;SDS011;60613;48.658;2.328;2023-01-15T17:58:07;10.73;;;5.47;;
72575;SDS011;60613;48.658;2.328;2023-01-15T18:00:53;11.30;;;5.15;;
72575;SDS011;60613;48.658;2.328;2023-01-15T18:03:38;10.65;;;5.00;;
72575;SDS011;60613;48.658;2.328;2023-01-15T18:06:28;11.77;;;5.10;;
72575;SDS011;60613;48.658;2.328;2023-01-15T18:08:54;10.65;;;4.78;;
72575;SDS011;60613;48.658;2.328;2023-01-15T18:11:22;10.73;;;5.05;;
72575;SDS011;60613;48.658;2.328;2023-01-15T18:13:48;10.97;;;4.93;;
72575;SDS011;60613;48.658;2.328;2023-01-15T18:16:13;10.20;;;5.10;;
72575;SDS011;60613;48.658;2.328;2023-01-15T18:18:41;10.35;;;4.88;;
72575;SDS011;60613;48.658;2.328;2023-01-15T18:21:07;10.57;;;5.17;;
72575;SDS011;60613;48.658;2.328;2023-01-15T18:23:32;10.85;;;5.00;;
72575;SDS011;60613;48.658;2.328;2023-01-15T18:26:03;10.70;;;5.15;;
72575;SDS011;60613;48.658;2.328;2023-01-15T18:28:33;9.05;;;4.47;;
72575;SDS011;60613;48.658;2.328;2023-01-15T18:31:00;9.35;;;4.68;;
72575;SDS011;60613;48.658;2.328;2023-01-15T18:33:26;9.93;;;4.83;;
72575;SDS011;60613;48.658;2.328;2023-01-15T18:36:06;9.55;;;4.50;;
72575;SDS011;60613;48.658;2.328;2023-01-15T18:38:34;9.30;;;4.13;;
72575;SDS011;60613;48.658;2.328;2023-01-15T18:41:22;9.43;;;4.38;;
72575;SDS011;60613;48.658;2.328;2023-01-15T18:44:13;10.27;;;4.25;;
72575;SDS011;60613;48.658;2.328;2023-01-15T18:47:00;8.77;;;3.90;;
72575;SDS011;60613;48.658;2.328;2023-01-15T18:49:33;9.38;;;4.15;;
72575;SDS011;60613;48.658;2.328;2023-01-15T18:51:59;8.88;;;3.92;;
72575;SDS011;60613;48.658;2.328;2023-01-15T18:54:43;9.10;;;4.00;;
72575;SDS011;60613;48.658;2.328;2023-01-15T18:57:09;9.33;;;3.77;;
72575;SDS011;60613;48.658;2.328;2023-01-15T18:59:34;8.77;;;3.50;;
72575;SDS011;60613;48.658;2.328;2023-01-15T19:02:00;8.77;;;3.58;;
72575;SDS011;60613;48.658;2.328;2023-01-15T19:04:26;8.17;;;3.50;;
72575;SDS011;60613;48.658;2.328;2023-01-15T19:06:51;7.93;;;3.57;;
72575;SDS011;60613;48.658;2.328;2023-01-15T19:09:17;7.22;;;3.08;;
72575;SDS011;60613;48.658;2.328;2023-01-15T19:11:45;7.82;;;3.10;;
72575;SDS011;60613;48.658;2.328;2023-01-15T19:14:11;10.57;;;3.33;;
72575;SDS011;60613;48.658;2.328;2023-01-15T19:16:56;8.10;;;3.00;;
72575;SDS011;60613;48.658;2.328;2023-01-15T19:19:40;8.32;;;3.30;;
72575;SDS011;60613;48.658;2.328;2023-01-15T19:22:07;7.35;;;2.80;;
72575;SDS011;60613;48.658;2.328;2023-01-15T19:24:52;8.20;;;2.85;;
72575;SDS011;60613;48.658;2.328;2023-01-15T19:27:18;7.00;;;2.70;;
72575;SDS011;60613;48.658;2.328;2023-01-15T19:29:43;7.43;;;2.75;;
72575;SDS011;60613;48.658;2.328;2023-01-15T19:32:09;7.60;;;2.80;;
72575;SDS011;60613;48.658;2.328;2023-01-15T19:34:35;7.95;;;2.85;;
72575;SDS011;60613;48.658;2.328;2023-01-15T19:37:00;7.77;;;2.90;;
72575;SDS011;60613;48.658;2.328;2023-01-15T19:39:26;7.20;;;2.70;;
72575;SDS011;60613;48.658;2.328;2023-01-15T19:41:53;7.97;;;2.57;;
72575;SDS011;60613;48.658;2.328;2023-01-15T19:44:38;6.35;;;2.53;;
72575;SDS011;60613;48.658;2.328;2023-01-15T19:47:24;6.70;;;2.42;;
72575;SDS011;60613;48.658;2.328;2023-01-15T19:50:36;7.13;;;2.30;;
72575;SDS011;60613;48.658;2.328;2023-01-15T19:53:05;6.97;;;2.42;;
72575;SDS011;60613;48.658;2.328;2023-01-15T19:55:32;7.00;;;2.43;;
72575;SDS011;60613;48.658;2.328;2023-01-15T19:57:59;7.50;;;2.35;;
72575;SDS011;60613;48.658;2.328;2023-01-15T20:00:27;6.28;;;2.17;;
72575;SDS011;60613;48.658;2.328;2023-01-15T20:02:53;6.68;;;2.20;;
72575;SDS011;60613;48.658;2.328;2023-01-15T20:05:20;6.63;;;2.20;;
72575;SDS011;60613;48.658;2.328;2023-01-15T20:07:47;7.50;;;2.30;;
72575;SDS011;60613;48.658;2.328;2023-01-15T20:10:13;7.00;;;2.33;;
72575;SDS011;60613;48.658;2.328;2023-01-15T20:12:41;7.13;;;2.50;;
72575;SDS011;60613;48.658;2.328;2023-01-15T20:15:25;5.23;;;1.80;;
72575;SDS011;60613;48.658;2.328;2023-01-15T20:17:51;7.88;;;2.20;;
72575;SDS011;60613;48.658;2.328;2023-01-15T20:20:17;6.80;;;2.20;;
72575;SDS011;60613;48.658;2.328;2023-01-15T20:22:43;6.45;;;2.20;;
72575;SDS011;60613;48.658;2.328;2023-01-15T20:25:09;6.87;;;2.20;;
72575;SDS011;60613;48.658;2.328;2023-01-15T20:27:35;5.70;;;1.95;;
72575;SDS011;60613;48.658;2.328;2023-01-15T20:30:04;6.37;;;2.20;;
72575;SDS011;60613;48.658;2.328;2023-01-15T20:32:39;6.43;;;2.05;;
72575;SDS011;60613;48.658;2.328;2023-01-15T20:35:07;6.80;;;2.00;;
72575;SDS011;60613;48.658;2.328;2023-01-15T20:37:36;6.63;;;2.00;;
72575;SDS011;60613;48.658;2.328;2023-01-15T20:40:01;6.40;;;1.80;;
72575;SDS011;60613;48.658;2.328;2023-01-15T20:42:28;6.30;;;1.80;;
72575;SDS011;60613;48.658;2.328;2023-01-15T20:45:12;6.82;;;2.00;;
72575;SDS011;60613;48.658;2.328;2023-01-15T20:47:38;7.22;;;2.00;;
72575;SDS011;60613;48.658;2.328;2023-01-15T20:50:25;5.50;;;1.77;;
72575;SDS011;60613;48.658;2.328;2023-01-15T20:52:52;5.80;;;1.80;;
72575;SDS011;60613;48.658;2.328;2023-01-15T20:55:18;6.63;;;1.98;;
72575;SDS011;60613;48.658;2.328;2023-01-15T20:57:45;5.28;;;1.70;;
72575;SDS011;60613;48.658;2.328;2023-01-15T21:00:13;7.25;;;1.63;;
72575;SDS011;60613;48.658;2.328;2023-01-15T21:02:40;5.50;;;1.70;;
72575;SDS011;60613;48.658;2.328;2023-01-15T21:05:06;6.77;;;1.70;;
72575;SDS011;60613;48.658;2.328;2023-01-15T21:07:32;5.65;;;1.80;;
72575;SDS011;60613;48.658;2.328;2023-01-15T21:09:59;6.63;;;1.80;;
72575;SDS011;60613;48.658;2.328;2023-01-15T21:12:24;6.30;;;1.90;;
72575;SDS011;60613;48.658;2.328;2023-01-15T21:14:50;6.20;;;1.80;;
72575;SDS011;60613;48.658;2.328;2023-01-15T21:17:15;5.83;;;1.63;;
72575;SDS011;60613;48.658;2.328;2023-01-15T21:19:41;5.50;;;1.50;;
72575;SDS011;60613;48.658;2.328;2023-01-15T21:22:07;6.83;;;1.80;;
72575;SDS011;60613;48.658;2.328;2023-01-15T21:24:33;5.72;;;1.80;;
72575;SDS011;60613;48.658;2.328;2023-01-15T21:26:59;5.47;;;1.60;;
72575;SDS011;60613;48.658;2.328;2023-01-15T21:29:24;6.20;;;1.80;;
72575;SDS011;60613;48.658;2.328;2023-01-15T21:31:50;5.70;;;1.50;;
72575;SDS011;60613;48.658;2.328;2023-01-15T21:34:17;6.57;;;1.83;;
72575;SDS011;60613;48.658;2.328;2023-01-15T21:36:43;5.40;;;1.57;;
72575;SDS011;60613;48.658;2.328;2023-01-15T21:39:09;5.25;;;1.58;;
72575;SDS011;60613;48.658;2.328;2023-01-15T21:41:36;4.53;;;1.33;;
72575;SDS011;60613;48.658;2.328;2023-01-15T21:44:20;5.57;;;1.50;;
72575;SDS011;60613;48.658;2.328;2023-01-15T21:47:15;7.40;;;1.60;;
72575;SDS011;60613;48.658;2.328;2023-01-15T21:49:42;5.03;;;1.30;;
72575;SDS011;60613;48.658;2.328;2023-01-15T21:52:09;5.15;;;1.40;;
72575;SDS011;60613;48.658;2.328;2023-01-15T21:54:37;4.50;;;1.10;;
72575;SDS011;60613;48.658;2.328;2023-01-15T21:57:03;4.20;;;1.10;;
72575;SDS011;60613;48.658;2.328;2023-01-15T21:59:30;5.00;;;1.38;;
